createdAt,value
2018-08-16T00:00:09.204Z,0.00
2018-08-16T00:01:09.149Z,0.00
2018-08-16T00:02:09.129Z,0.00
2018-08-16T00:03:09.051Z,0.00
2018-08-16T00:04:09.014Z,0.00
2018-08-16T00:05:08.960Z,0.00
2018-08-16T00:06:08.915Z,0.00
2018-08-16T00:07:08.901Z,0.00
2018-08-16T00:08:08.817Z,0.00
2018-08-16T00:09:08.772Z,0.00
2018-08-16T00:10:08.741Z,0.00
2018-08-16T00:11:08.695Z,0.00
2018-08-16T00:12:08.666Z,0.00
2018-08-16T00:13:08.596Z,0.00
2018-08-16T00:14:08.557Z,0.00
2018-08-16T00:15:08.512Z,0.00
2018-08-16T00:16:08.468Z,0.00
2018-08-16T00:17:08.449Z,0.00
2018-08-16T00:18:08.398Z,0.00
2018-08-16T00:19:08.319Z,0.00
2018-08-16T00:20:08.292Z,0.00
2018-08-16T00:21:08.232Z,0.00
2018-08-16T00:22:08.215Z,0.00
2018-08-16T00:23:08.151Z,0.00
2018-08-16T00:24:08.088Z,0.00
2018-08-16T00:25:08.055Z,0.00
2018-08-16T00:26:08.038Z,0.00
2018-08-16T00:27:07.962Z,0.00
2018-08-16T00:28:07.962Z,0.00
2018-08-16T00:29:07.862Z,0.00
2018-08-16T00:30:07.816Z,0.00
2018-08-16T00:31:07.802Z,0.00
2018-08-16T00:32:07.738Z,0.00
2018-08-16T00:33:07.702Z,0.00
2018-08-16T00:34:07.629Z,0.00
2018-08-16T00:35:07.592Z,0.00
2018-08-16T00:36:07.549Z,0.00
2018-08-16T00:37:07.500Z,0.00
2018-08-16T00:38:07.510Z,0.00
2018-08-16T00:39:07.438Z,0.00
2018-08-16T00:40:07.362Z,0.00
2018-08-16T00:41:07.325Z,0.00
2018-08-16T00:42:07.272Z,0.00
2018-08-16T00:43:07.254Z,0.00
2018-08-16T00:44:07.208Z,0.00
2018-08-16T00:45:07.157Z,0.00
2018-08-16T00:46:07.091Z,0.00
2018-08-16T00:47:07.050Z,0.00
2018-08-16T00:48:07.020Z,0.00
2018-08-16T00:49:07.001Z,0.00
2018-08-16T00:50:06.904Z,0.00
2018-08-16T00:51:06.866Z,0.00
2018-08-16T00:52:06.823Z,0.00
2018-08-16T00:53:06.817Z,0.00
2018-08-16T00:54:06.790Z,0.00
2018-08-16T00:55:06.680Z,0.00
2018-08-16T00:56:06.639Z,0.00
2018-08-16T00:57:06.584Z,0.00
2018-08-16T00:58:06.564Z,0.00
2018-08-16T00:59:06.507Z,0.00
2018-08-16T01:00:06.459Z,0.00
2018-08-16T01:01:06.399Z,0.00
2018-08-16T01:02:06.361Z,0.00
2018-08-16T01:03:06.341Z,0.00
2018-08-16T01:04:06.265Z,0.00
2018-08-16T01:05:06.254Z,0.00
2018-08-16T01:06:06.178Z,0.00
2018-08-16T01:07:06.175Z,0.00
2018-08-16T01:08:06.138Z,0.00
2018-08-16T01:09:06.052Z,0.00
2018-08-16T01:10:05.984Z,0.00
2018-08-16T01:11:05.968Z,0.00
2018-08-16T01:12:05.893Z,0.00
2018-08-16T01:13:05.887Z,0.00
2018-08-16T01:14:05.811Z,0.00
2018-08-16T01:15:05.819Z,0.00
2018-08-16T01:16:05.721Z,0.00
2018-08-16T01:17:05.665Z,0.00
2018-08-16T01:18:05.715Z,0.00
2018-08-16T01:19:05.615Z,0.00
2018-08-16T01:20:05.596Z,0.00
2018-08-16T01:21:05.496Z,0.00
2018-08-16T01:22:05.446Z,0.00
2018-08-16T01:23:05.422Z,0.00
2018-08-16T01:24:05.366Z,0.00
2018-08-16T01:25:05.316Z,0.00
2018-08-16T01:26:05.260Z,0.00
2018-08-16T01:27:05.224Z,0.00
2018-08-16T01:28:05.192Z,0.00
2018-08-16T01:29:05.118Z,0.00
2018-08-16T01:30:05.077Z,0.00
2018-08-16T01:31:05.037Z,0.00
2018-08-16T01:32:04.989Z,0.00
2018-08-16T01:33:04.959Z,0.00
2018-08-16T01:34:04.896Z,0.00
2018-08-16T01:35:04.842Z,0.00
2018-08-16T01:36:04.797Z,0.00
2018-08-16T01:37:04.803Z,0.00
2018-08-16T01:38:04.748Z,0.00
2018-08-16T01:39:04.684Z,0.00
2018-08-16T01:40:04.641Z,0.00
2018-08-16T01:41:04.574Z,0.00
2018-08-16T01:42:04.530Z,0.00
2018-08-16T01:43:04.514Z,0.00
2018-08-16T01:44:04.468Z,0.00
2018-08-16T01:45:04.392Z,0.00
2018-08-16T01:46:04.346Z,0.00
2018-08-16T01:47:04.319Z,0.00
2018-08-16T01:48:04.319Z,0.00
2018-08-16T01:49:04.203Z,0.00
2018-08-16T01:50:04.225Z,0.00
2018-08-16T01:51:04.107Z,0.00
2018-08-16T01:52:04.063Z,0.00
2018-08-16T01:53:04.010Z,0.00
2018-08-16T01:54:04.012Z,0.00
2018-08-16T01:55:03.923Z,0.00
2018-08-16T01:56:03.926Z,0.00
2018-08-16T01:57:03.848Z,0.00
2018-08-16T01:58:03.787Z,0.00
2018-08-16T01:59:03.762Z,0.00
2018-08-16T02:00:03.690Z,0.00
2018-08-16T02:01:03.813Z,0.00
2018-08-16T02:02:03.597Z,0.00
2018-08-16T02:03:03.556Z,0.00
2018-08-16T02:04:03.554Z,0.00
2018-08-16T02:05:03.516Z,0.00
2018-08-16T02:06:03.422Z,0.00
2018-08-16T02:07:03.384Z,0.00
2018-08-16T02:08:03.315Z,0.00
2018-08-16T02:09:03.307Z,0.00
2018-08-16T02:10:03.229Z,0.00
2018-08-16T02:11:03.184Z,0.00
2018-08-16T02:12:03.132Z,0.00
2018-08-16T02:13:03.102Z,0.00
2018-08-16T02:14:03.064Z,0.00
2018-08-16T02:15:02.999Z,0.00
2018-08-16T02:16:02.998Z,0.00
2018-08-16T02:17:02.905Z,0.00
2018-08-16T02:18:02.855Z,0.00
2018-08-16T02:19:02.831Z,0.00
2018-08-16T02:20:03.224Z,0.00
2018-08-16T02:21:02.717Z,0.00
2018-08-16T02:22:02.672Z,0.00
2018-08-16T02:23:02.647Z,0.00
2018-08-16T02:24:02.619Z,0.00
2018-08-16T02:25:02.616Z,0.00
2018-08-16T02:26:02.489Z,0.00
2018-08-16T02:27:02.454Z,0.00
2018-08-16T02:28:02.386Z,0.00
2018-08-16T02:29:02.391Z,0.00
2018-08-16T02:30:02.301Z,0.00
2018-08-16T02:31:02.274Z,0.00
2018-08-16T02:32:02.205Z,0.00
2018-08-16T02:33:02.161Z,0.00
2018-08-16T02:34:02.139Z,0.00
2018-08-16T02:35:02.066Z,0.00
2018-08-16T02:36:02.016Z,0.00
2018-08-16T02:37:01.970Z,0.00
2018-08-16T02:38:01.924Z,0.00
2018-08-16T02:39:01.908Z,0.00
2018-08-16T02:40:01.830Z,0.00
2018-08-16T02:41:01.783Z,0.00
2018-08-16T02:42:01.743Z,0.00
2018-08-16T02:43:01.715Z,0.00
2018-08-16T02:44:01.695Z,0.00
2018-08-16T02:45:01.595Z,0.00
2018-08-16T02:46:01.548Z,0.00
2018-08-16T02:47:01.549Z,0.00
2018-08-16T02:48:01.457Z,0.00
2018-08-16T02:49:01.433Z,0.00
2018-08-16T02:50:01.372Z,0.00
2018-08-16T02:51:01.431Z,0.00
2018-08-16T02:52:01.269Z,0.00
2018-08-16T02:53:01.258Z,0.00
2018-08-16T02:54:01.207Z,0.00
2018-08-16T02:55:01.139Z,0.00
2018-08-16T02:56:01.106Z,0.00
2018-08-16T02:57:01.038Z,0.00
2018-08-16T02:58:00.983Z,0.00
2018-08-16T02:59:00.963Z,0.00
2018-08-16T03:00:00.898Z,0.00
2018-08-16T03:01:00.848Z,0.00
2018-08-16T03:02:00.844Z,0.00
2018-08-16T03:03:00.756Z,0.00
2018-08-16T03:04:00.727Z,0.00
2018-08-16T03:05:00.671Z,0.00
2018-08-16T03:06:00.622Z,0.00
2018-08-16T03:07:00.577Z,0.00
2018-08-16T03:08:00.513Z,0.00
2018-08-16T03:09:00.501Z,0.00
2018-08-16T03:10:00.425Z,0.00
2018-08-16T03:11:00.397Z,0.00
2018-08-16T03:12:00.330Z,0.00
2018-08-16T03:13:00.281Z,0.00
2018-08-16T03:14:00.275Z,0.00
2018-08-16T03:15:00.187Z,0.00
2018-08-16T03:16:00.162Z,0.00
2018-08-16T03:17:00.095Z,0.00
2018-08-16T03:18:00.048Z,0.00
2018-08-16T03:19:00.002Z,0.00
2018-08-16T03:20:00.003Z,0.00
2018-08-16T03:20:59.906Z,0.00
2018-08-16T03:21:59.859Z,0.00
2018-08-16T03:22:59.824Z,0.00
2018-08-16T03:23:59.773Z,0.00
2018-08-16T03:24:59.737Z,0.00
2018-08-16T03:25:59.666Z,0.00
2018-08-16T03:26:59.642Z,0.00
2018-08-16T03:27:59.574Z,0.00
2018-08-16T03:28:59.530Z,0.00
2018-08-16T03:29:59.504Z,0.00
2018-08-16T03:30:59.434Z,0.00
2018-08-16T03:31:59.387Z,0.00
2018-08-16T03:32:59.347Z,0.00
2018-08-16T03:33:59.295Z,0.00
2018-08-16T03:34:59.271Z,0.00
2018-08-16T03:35:59.200Z,0.00
2018-08-16T03:36:59.154Z,0.00
2018-08-16T03:37:59.104Z,0.00
2018-08-16T03:38:59.065Z,0.00
2018-08-16T03:39:59.069Z,0.00
2018-08-16T03:40:58.986Z,0.00
2018-08-16T03:41:58.914Z,0.00
2018-08-16T03:42:58.867Z,0.00
2018-08-16T03:43:58.817Z,4.00
2018-08-16T03:44:58.800Z,4.00
2018-08-16T03:45:58.725Z,0.00
2018-08-16T03:46:58.701Z,4.00
2018-08-16T03:47:58.635Z,4.00
2018-08-16T03:48:58.607Z,8.00
2018-08-16T03:49:58.558Z,4.00
2018-08-16T03:50:58.487Z,8.00
2018-08-16T03:51:58.441Z,8.00
2018-08-16T03:52:58.395Z,8.00
2018-08-16T03:53:58.352Z,8.00
2018-08-16T03:54:58.344Z,8.00
2018-08-16T03:55:58.257Z,12.00
2018-08-16T03:56:58.222Z,12.00
2018-08-16T03:57:58.169Z,16.00
2018-08-16T03:58:58.119Z,16.00
2018-08-16T03:59:58.088Z,16.00
2018-08-16T04:00:58.018Z,20.00
2018-08-16T04:01:57.969Z,24.00
2018-08-16T04:02:57.929Z,28.00
2018-08-16T04:03:57.890Z,32.00
2018-08-16T04:04:57.858Z,32.00
2018-08-16T04:05:57.780Z,36.00
2018-08-16T04:06:57.749Z,40.00
2018-08-16T04:07:57.711Z,44.00
2018-08-16T04:08:57.640Z,48.00
2018-08-16T04:09:57.624Z,52.00
2018-08-16T04:10:57.542Z,56.00
2018-08-16T04:11:57.493Z,60.00
2018-08-16T04:12:57.455Z,68.00
2018-08-16T04:13:57.430Z,72.00
2018-08-16T04:14:57.387Z,80.00
2018-08-16T04:15:57.312Z,84.00
2018-08-16T04:16:57.312Z,88.00
2018-08-16T04:17:57.215Z,96.00
2018-08-16T04:18:57.165Z,104.00
2018-08-16T04:19:57.171Z,112.00
2018-08-16T04:20:57.077Z,120.00
2018-08-16T04:21:57.016Z,128.00
2018-08-16T04:22:56.977Z,136.00
2018-08-16T04:23:56.926Z,144.00
2018-08-16T04:24:56.909Z,152.00
2018-08-16T04:25:56.826Z,160.00
2018-08-16T04:26:56.827Z,168.00
2018-08-16T04:27:56.769Z,176.00
2018-08-16T04:28:56.689Z,192.00
2018-08-16T04:29:56.682Z,200.00
2018-08-16T04:30:56.593Z,212.00
2018-08-16T04:31:56.552Z,228.00
2018-08-16T04:32:56.501Z,236.00
2018-08-16T04:33:56.456Z,252.00
2018-08-16T04:34:56.478Z,264.00
2018-08-16T04:35:56.411Z,276.00
2018-08-16T04:36:56.311Z,288.00
2018-08-16T04:37:56.263Z,300.00
2018-08-16T04:38:56.217Z,316.00
2018-08-16T04:39:56.284Z,328.00
2018-08-16T04:40:56.129Z,340.00
2018-08-16T04:41:56.229Z,352.00
2018-08-16T04:42:56.025Z,368.00
2018-08-16T04:43:55.983Z,380.00
2018-08-16T04:44:55.966Z,396.00
2018-08-16T04:45:55.889Z,412.00
2018-08-16T04:46:55.903Z,424.00
2018-08-16T04:47:55.801Z,440.00
2018-08-16T04:48:55.736Z,452.00
2018-08-16T04:49:55.690Z,472.00
2018-08-16T04:50:55.673Z,488.00
2018-08-16T04:51:55.591Z,512.00
2018-08-16T04:52:55.634Z,540.00
2018-08-16T04:53:55.501Z,564.00
2018-08-16T04:54:55.460Z,592.00
2018-08-16T04:55:55.551Z,616.00
2018-08-16T04:56:55.380Z,636.00
2018-08-16T04:57:55.338Z,660.00
2018-08-16T04:58:55.300Z,680.00
2018-08-16T04:59:55.219Z,696.00
2018-08-16T05:00:55.195Z,712.00
2018-08-16T05:01:55.124Z,736.00
2018-08-16T05:02:55.072Z,756.00
2018-08-16T05:03:55.028Z,776.00
2018-08-16T05:04:54.980Z,796.00
2018-08-16T05:05:55.166Z,820.00
2018-08-16T05:06:54.907Z,844.00
2018-08-16T05:07:54.833Z,860.00
2018-08-16T05:08:54.796Z,884.00
2018-08-16T05:09:54.755Z,904.00
2018-08-16T05:10:54.727Z,924.00
2018-08-16T05:11:54.644Z,948.00
2018-08-16T05:12:54.603Z,968.00
2018-08-16T05:13:54.559Z,988.00
2018-08-16T05:14:54.503Z,1008.00
2018-08-16T05:15:54.502Z,1024.00
2018-08-16T05:16:54.411Z,1040.00
2018-08-16T05:17:54.371Z,1064.00
2018-08-16T05:18:54.315Z,1084.00
2018-08-16T05:19:54.274Z,1108.00
2018-08-16T05:20:54.258Z,1132.00
2018-08-16T05:21:54.190Z,1160.00
2018-08-16T05:22:54.126Z,1212.00
2018-08-16T05:23:54.124Z,1332.00
2018-08-16T05:24:54.032Z,1532.00
2018-08-16T05:25:54.007Z,1784.00
2018-08-16T05:26:53.940Z,2056.00
2018-08-16T05:27:53.932Z,2296.00
2018-08-16T05:28:53.840Z,2508.00
2018-08-16T05:29:53.791Z,2676.00
2018-08-16T05:30:53.766Z,2308.00
2018-08-16T05:31:53.700Z,2444.00
2018-08-16T05:32:53.651Z,2548.00
2018-08-16T05:33:53.612Z,2656.00
2018-08-16T05:34:53.552Z,2716.00
2018-08-16T05:35:53.537Z,2792.00
2018-08-16T05:36:53.463Z,2860.00
2018-08-16T05:37:53.417Z,2908.00
2018-08-16T05:38:53.369Z,2968.00
2018-08-16T05:39:53.317Z,2988.00
2018-08-16T05:40:53.303Z,3044.00
2018-08-16T05:41:53.227Z,3148.00
2018-08-16T05:42:53.205Z,3172.00
2018-08-16T05:43:53.148Z,3240.00
2018-08-16T05:44:53.091Z,3264.00
2018-08-16T05:45:53.080Z,3308.00
2018-08-16T05:46:53.002Z,3328.00
2018-08-16T05:47:52.948Z,3368.00
2018-08-16T05:48:52.899Z,3396.00
2018-08-16T05:49:52.850Z,3448.00
2018-08-16T05:50:52.863Z,3492.00
2018-08-16T05:51:52.774Z,3532.00
2018-08-16T05:52:52.715Z,3560.00
2018-08-16T05:53:52.666Z,3600.00
2018-08-16T05:54:52.620Z,3640.00
2018-08-16T05:55:52.618Z,3696.00
2018-08-16T05:56:52.536Z,3596.00
2018-08-16T05:57:52.497Z,3632.00
2018-08-16T05:58:52.449Z,3680.00
2018-08-16T05:59:52.386Z,3724.00
2018-08-16T06:00:52.368Z,3756.00
2018-08-16T06:01:52.305Z,3752.00
2018-08-16T06:02:52.265Z,3788.00
2018-08-16T06:03:52.212Z,3816.00
2018-08-16T06:04:52.160Z,3872.00
2018-08-16T06:05:52.167Z,3908.00
2018-08-16T06:06:52.069Z,3908.00
2018-08-16T06:07:52.026Z,3900.00
2018-08-16T06:08:51.985Z,3956.00
2018-08-16T06:09:51.937Z,3976.00
2018-08-16T06:10:51.888Z,3964.00
2018-08-16T06:11:51.866Z,3996.00
2018-08-16T06:12:51.798Z,4016.00
2018-08-16T06:13:51.747Z,4036.00
2018-08-16T06:14:51.704Z,4020.00
2018-08-16T06:15:51.654Z,4036.00
2018-08-16T06:16:51.634Z,4084.00
2018-08-16T06:17:51.562Z,4088.00
2018-08-16T06:18:51.520Z,4100.00
2018-08-16T06:19:51.473Z,4144.00
2018-08-16T06:20:51.428Z,4184.00
2018-08-16T06:21:51.412Z,4220.00
2018-08-16T06:22:51.340Z,4252.00
2018-08-16T06:23:51.300Z,4244.00
2018-08-16T06:24:51.250Z,4268.00
2018-08-16T06:25:51.197Z,4264.00
2018-08-16T06:26:51.256Z,4272.00
2018-08-16T06:27:51.108Z,4264.00
2018-08-16T06:28:51.064Z,4256.00
2018-08-16T06:29:51.018Z,4236.00
2018-08-16T06:30:50.978Z,4320.00
2018-08-16T06:31:50.956Z,4296.00
2018-08-16T06:32:50.884Z,4292.00
2018-08-16T06:33:50.837Z,4244.00
2018-08-16T06:34:50.794Z,4332.00
2018-08-16T06:35:50.756Z,4292.00
2018-08-16T06:36:50.732Z,4340.00
2018-08-16T06:37:50.664Z,4332.00
2018-08-16T06:38:50.664Z,4312.00
2018-08-16T06:39:50.567Z,4316.00
2018-08-16T06:40:50.522Z,4300.00
2018-08-16T06:41:50.507Z,4336.00
2018-08-16T06:42:50.440Z,4320.00
2018-08-16T06:43:50.389Z,4308.00
2018-08-16T06:44:50.362Z,4308.00
2018-08-16T06:45:50.298Z,4340.00
2018-08-16T06:46:50.297Z,4324.00
2018-08-16T06:47:50.207Z,4296.00
2018-08-16T06:48:50.168Z,4304.00
2018-08-16T06:49:50.144Z,4284.00
2018-08-16T06:50:50.073Z,4300.00
2018-08-16T06:51:50.070Z,4276.00
2018-08-16T06:52:49.999Z,4268.00
2018-08-16T06:53:49.944Z,4268.00
2018-08-16T06:54:49.905Z,4280.00
2018-08-16T06:55:49.847Z,4268.00
2018-08-16T06:56:49.845Z,4256.00
2018-08-16T06:57:49.764Z,4272.00
2018-08-16T06:58:49.714Z,4252.00
2018-08-16T06:59:49.666Z,4268.00
2018-08-16T07:00:49.618Z,4260.00
2018-08-16T07:01:49.568Z,4248.00
2018-08-16T07:02:49.564Z,4240.00
2018-08-16T07:03:49.483Z,4232.00
2018-08-16T07:04:49.478Z,4216.00
2018-08-16T07:05:49.397Z,4208.00
2018-08-16T07:06:49.348Z,4200.00
2018-08-16T07:07:49.335Z,4184.00
2018-08-16T07:08:49.256Z,4204.00
2018-08-16T07:09:49.216Z,4180.00
2018-08-16T07:10:49.186Z,4176.00
2018-08-16T07:11:49.122Z,4180.00
2018-08-16T07:12:49.101Z,4172.00
2018-08-16T07:13:49.060Z,4164.00
2018-08-16T07:14:48.986Z,4148.00
2018-08-16T07:15:48.946Z,4124.00
2018-08-16T07:16:48.898Z,4120.00
2018-08-16T07:17:48.885Z,4132.00
2018-08-16T07:18:48.887Z,4124.00
2018-08-16T07:19:48.764Z,4104.00
2018-08-16T07:20:48.727Z,4084.00
2018-08-16T07:21:48.681Z,4092.00
2018-08-16T07:22:48.655Z,4088.00
2018-08-16T07:23:48.593Z,4080.00
2018-08-16T07:24:48.563Z,4036.00
2018-08-16T07:25:48.499Z,4036.00
2018-08-16T07:26:48.453Z,4008.00
2018-08-16T07:27:48.465Z,3960.00
2018-08-16T07:28:48.376Z,3984.00
2018-08-16T07:29:48.349Z,3940.00
2018-08-16T07:30:48.299Z,3912.00
2018-08-16T07:31:48.242Z,3904.00
2018-08-16T07:32:48.241Z,3912.00
2018-08-16T07:33:48.158Z,3904.00
2018-08-16T07:34:48.102Z,3864.00
2018-08-16T07:35:48.059Z,3856.00
2018-08-16T07:36:48.014Z,3840.00
2018-08-16T07:37:48.026Z,3820.00
2018-08-16T07:38:47.942Z,3792.00
2018-08-16T07:39:47.892Z,3784.00
2018-08-16T07:40:47.836Z,3760.00
2018-08-16T07:41:47.804Z,3728.00
2018-08-16T07:42:47.802Z,3700.00
2018-08-16T07:43:47.711Z,3680.00
2018-08-16T07:44:47.669Z,3668.00
2018-08-16T07:45:47.759Z,3624.00
2018-08-16T07:46:47.586Z,3636.00
2018-08-16T07:47:47.565Z,3604.00
2018-08-16T07:48:47.490Z,3564.00
2018-08-16T07:49:47.450Z,3556.00
2018-08-16T07:50:47.396Z,3536.00
2018-08-16T07:51:47.379Z,3532.00
2018-08-16T07:52:47.331Z,3536.00
2018-08-16T07:53:47.264Z,3496.00
2018-08-16T07:54:47.219Z,3468.00
2018-08-16T07:55:47.174Z,3440.00
2018-08-16T07:56:47.136Z,3408.00
2018-08-16T07:57:47.129Z,3380.00
2018-08-16T07:58:47.049Z,3360.00
2018-08-16T07:59:47.004Z,3328.00
2018-08-16T08:00:46.959Z,3288.00
2018-08-16T08:01:46.915Z,3256.00
2018-08-16T08:02:46.919Z,3220.00
2018-08-16T08:03:46.830Z,3184.00
2018-08-16T08:04:46.798Z,3140.00
2018-08-16T08:05:46.743Z,3100.00
2018-08-16T08:06:46.705Z,3056.00
2018-08-16T08:07:46.690Z,3028.00
2018-08-16T08:08:46.664Z,2992.00
2018-08-16T08:09:46.675Z,2952.00
2018-08-16T08:10:46.524Z,2900.00
2018-08-16T08:11:46.486Z,2856.00
2018-08-16T08:12:46.459Z,2816.00
2018-08-16T08:13:46.390Z,2780.00
2018-08-16T08:14:46.351Z,2736.00
2018-08-16T08:15:46.303Z,2692.00
2018-08-16T08:16:46.260Z,2660.00
2018-08-16T08:17:46.239Z,2632.00
2018-08-16T08:18:46.175Z,2592.00
2018-08-16T08:19:46.126Z,2564.00
2018-08-16T08:20:46.083Z,2548.00
2018-08-16T08:21:46.043Z,2536.00
2018-08-16T08:22:46.036Z,2520.00
2018-08-16T08:23:45.956Z,2500.00
2018-08-16T08:24:45.913Z,2508.00
2018-08-16T08:25:45.899Z,2488.00
2018-08-16T08:26:45.834Z,2496.00
2018-08-16T08:27:45.790Z,2500.00
2018-08-16T08:28:45.776Z,2488.00
2018-08-16T08:29:45.693Z,2480.00
2018-08-16T08:30:45.648Z,2476.00
2018-08-16T08:31:45.667Z,2472.00
2018-08-16T08:32:45.561Z,2508.00
2018-08-16T08:33:45.541Z,2488.00
2018-08-16T08:34:45.474Z,2480.00
2018-08-16T08:35:45.430Z,2460.00
2018-08-16T08:36:45.386Z,2452.00
2018-08-16T08:37:45.342Z,2464.00
2018-08-16T08:38:45.371Z,2488.00
2018-08-16T08:39:45.260Z,2492.00
2018-08-16T08:40:45.211Z,2496.00
2018-08-16T08:41:45.169Z,2516.00
2018-08-16T08:42:45.154Z,2524.00
2018-08-16T08:43:45.136Z,2528.00
2018-08-16T08:44:45.046Z,2552.00
2018-08-16T08:45:45.007Z,2532.00
2018-08-16T08:46:44.952Z,2520.00
2018-08-16T08:47:44.910Z,2540.00
2018-08-16T08:48:44.907Z,2564.00
2018-08-16T08:49:44.821Z,2532.00
2018-08-16T08:50:44.783Z,2556.00
2018-08-16T08:51:44.739Z,2596.00
2018-08-16T08:52:44.705Z,2588.00
2018-08-16T08:53:44.742Z,2592.00
2018-08-16T08:54:44.613Z,2608.00
2018-08-16T08:55:44.579Z,2608.00
2018-08-16T08:56:44.525Z,2604.00
2018-08-16T08:57:44.487Z,2584.00
2018-08-16T08:58:44.445Z,2608.00
2018-08-16T08:59:44.423Z,2648.00
2018-08-16T09:00:44.350Z,2668.00
2018-08-16T09:01:44.313Z,2760.00
2018-08-16T09:02:44.279Z,2668.00
2018-08-16T09:03:44.224Z,2628.00
2018-08-16T09:04:44.225Z,2628.00
2018-08-16T09:05:44.145Z,2612.00
2018-08-16T09:06:44.137Z,2620.00
2018-08-16T09:07:44.045Z,2632.00
2018-08-16T09:08:44.010Z,2628.00
2018-08-16T09:09:43.991Z,2548.00
2018-08-16T09:10:43.913Z,2572.00
2018-08-16T09:11:43.885Z,2588.00
2018-08-16T09:12:43.837Z,2608.00
2018-08-16T09:13:43.899Z,2632.00
2018-08-16T09:14:43.783Z,2660.00
2018-08-16T09:15:43.703Z,2672.00
2018-08-16T09:16:43.658Z,3400.00
2018-08-16T09:17:43.617Z,3508.00
2018-08-16T09:18:43.575Z,2948.00
2018-08-16T09:19:43.569Z,2672.00
2018-08-16T09:20:43.489Z,2704.00
2018-08-16T09:21:43.477Z,2740.00
2018-08-16T09:22:43.416Z,2744.00
2018-08-16T09:23:43.357Z,2588.00
2018-08-16T09:24:43.319Z,2704.00
2018-08-16T09:25:43.299Z,2724.00
2018-08-16T09:26:43.231Z,2824.00
2018-08-16T09:27:43.184Z,2764.00
2018-08-16T09:28:43.142Z,2864.00
2018-08-16T09:29:43.104Z,2792.00
2018-08-16T09:30:43.088Z,2504.00
2018-08-16T09:31:43.094Z,2836.00
2018-08-16T09:32:42.974Z,2660.00
2018-08-16T09:33:42.949Z,2812.00
2018-08-16T09:34:42.886Z,2800.00
2018-08-16T09:35:42.868Z,2868.00
2018-08-16T09:36:42.799Z,2936.00
2018-08-16T09:37:42.759Z,3000.00
2018-08-16T09:38:42.718Z,2960.00
2018-08-16T09:39:42.758Z,2816.00
2018-08-16T09:40:42.672Z,2808.00
2018-08-16T09:41:42.588Z,2564.00
2018-08-16T09:42:42.549Z,2780.00
2018-08-16T09:43:42.506Z,2820.00
2018-08-16T09:44:42.476Z,3000.00
2018-08-16T09:45:42.435Z,3096.00
2018-08-16T09:46:42.398Z,3212.00
2018-08-16T09:47:42.339Z,3048.00
2018-08-16T09:48:42.295Z,3192.00
2018-08-16T09:49:42.258Z,3048.00
2018-08-16T09:50:42.208Z,3036.00
2018-08-16T09:51:42.255Z,2948.00
2018-08-16T09:52:42.132Z,2988.00
2018-08-16T09:53:42.076Z,2980.00
2018-08-16T09:54:42.033Z,2940.00
2018-08-16T09:55:42.003Z,2980.00
2018-08-16T09:56:41.977Z,3112.00
2018-08-16T09:57:41.913Z,3240.00
2018-08-16T09:58:41.872Z,3176.00
2018-08-16T09:59:41.826Z,2944.00
2018-08-16T10:00:41.777Z,3352.00
2018-08-16T10:01:41.767Z,3220.00
2018-08-16T10:02:41.691Z,3100.00
2018-08-16T10:03:41.651Z,3128.00
2018-08-16T10:04:41.611Z,3216.00
2018-08-16T10:05:41.564Z,3152.00
2018-08-16T10:06:41.547Z,3120.00
2018-08-16T10:07:41.485Z,3112.00
2018-08-16T10:08:41.437Z,2992.00
2018-08-16T10:09:41.402Z,2812.00
2018-08-16T10:10:41.361Z,3028.00
2018-08-16T10:11:41.351Z,2992.00
2018-08-16T10:12:41.271Z,3100.00
2018-08-16T10:13:41.275Z,3076.00
2018-08-16T10:14:41.186Z,3044.00
2018-08-16T10:15:41.140Z,2996.00
2018-08-16T10:16:41.098Z,3004.00
2018-08-16T10:17:41.083Z,2940.00
2018-08-16T10:18:41.021Z,2996.00
2018-08-16T10:19:40.973Z,3072.00
2018-08-16T10:20:40.934Z,3064.00
2018-08-16T10:21:40.938Z,3024.00
2018-08-16T10:22:40.874Z,2912.00
2018-08-16T10:23:40.805Z,2872.00
2018-08-16T10:24:40.761Z,2840.00
2018-08-16T10:25:40.719Z,2880.00
2018-08-16T10:26:40.675Z,2828.00
2018-08-16T10:27:40.662Z,2932.00
2018-08-16T10:28:40.594Z,2932.00
2018-08-16T10:29:40.551Z,2936.00
2018-08-16T10:30:40.509Z,2996.00
2018-08-16T10:31:40.463Z,3020.00
2018-08-16T10:32:40.449Z,3016.00
2018-08-16T10:33:40.380Z,3024.00
2018-08-16T10:34:40.342Z,2980.00
2018-08-16T10:35:40.295Z,3028.00
2018-08-16T10:36:40.258Z,2932.00
2018-08-16T10:37:40.240Z,2980.00
2018-08-16T10:38:40.172Z,2996.00
2018-08-16T10:39:40.127Z,3048.00
2018-08-16T10:40:40.088Z,3140.00
2018-08-16T10:41:40.046Z,3240.00
2018-08-16T10:42:40.027Z,3220.00
2018-08-16T10:43:39.959Z,3176.00
2018-08-16T10:44:39.916Z,3152.00
2018-08-16T10:45:39.876Z,3124.00
2018-08-16T10:46:39.839Z,3232.00
2018-08-16T10:47:39.827Z,3248.00
2018-08-16T10:48:39.750Z,3236.00
2018-08-16T10:49:39.708Z,3208.00
2018-08-16T10:50:39.666Z,3272.00
2018-08-16T10:51:39.622Z,3224.00
2018-08-16T10:52:39.581Z,3032.00
2018-08-16T10:53:39.563Z,3124.00
2018-08-16T10:54:39.499Z,3228.00
2018-08-16T10:55:39.454Z,3180.00
2018-08-16T10:56:39.410Z,3092.00
2018-08-16T10:57:39.368Z,3144.00
2018-08-16T10:58:39.357Z,3112.00
2018-08-16T10:59:39.291Z,3244.00
2018-08-16T11:00:39.240Z,3216.00
2018-08-16T11:01:39.202Z,3276.00
2018-08-16T11:02:39.164Z,3204.00
2018-08-16T11:03:39.140Z,3116.00
2018-08-16T11:04:39.071Z,3084.00
2018-08-16T11:05:39.029Z,3172.00
2018-08-16T11:06:38.990Z,3232.00
2018-08-16T11:07:39.043Z,3276.00
2018-08-16T11:08:38.933Z,3220.00
2018-08-16T11:09:38.865Z,3160.00
2018-08-16T11:10:38.822Z,3120.00
2018-08-16T11:11:38.782Z,3252.00
2018-08-16T11:12:38.743Z,3268.00
2018-08-16T11:13:38.718Z,3184.00
2018-08-16T11:14:38.651Z,3084.00
2018-08-16T11:15:38.611Z,3072.00
2018-08-16T11:16:38.566Z,3128.00
2018-08-16T11:17:38.525Z,3160.00
2018-08-16T11:18:38.505Z,3196.00
2018-08-16T11:19:38.442Z,3168.00
2018-08-16T11:20:38.401Z,3000.00
2018-08-16T11:21:38.358Z,2996.00
2018-08-16T11:22:38.316Z,2996.00
2018-08-16T11:23:38.313Z,3008.00
2018-08-16T11:24:38.230Z,3268.00
2018-08-16T11:25:38.192Z,3244.00
2018-08-16T11:26:38.147Z,3152.00
2018-08-16T11:27:38.106Z,3316.00
2018-08-16T11:28:38.089Z,3368.00
2018-08-16T11:29:38.021Z,3588.00
2018-08-16T11:30:37.981Z,3668.00
2018-08-16T11:31:37.938Z,3496.00
2018-08-16T11:32:37.892Z,3228.00
2018-08-16T11:33:37.877Z,3088.00
2018-08-16T11:34:37.814Z,3180.00
2018-08-16T11:35:37.770Z,3240.00
2018-08-16T11:36:37.724Z,3220.00
2018-08-16T11:37:37.704Z,3348.00
2018-08-16T11:38:37.672Z,3464.00
2018-08-16T11:39:37.603Z,3564.00
2018-08-16T11:40:37.570Z,3568.00
2018-08-16T11:41:37.516Z,3600.00
2018-08-16T11:42:37.476Z,3548.00
2018-08-16T11:43:37.455Z,3528.00
2018-08-16T11:44:37.396Z,3364.00
2018-08-16T11:45:37.351Z,3372.00
2018-08-16T11:46:37.351Z,3044.00
2018-08-16T11:47:37.265Z,3100.00
2018-08-16T11:48:37.250Z,2976.00
2018-08-16T11:49:37.194Z,2800.00
2018-08-16T11:50:37.140Z,2856.00
2018-08-16T11:51:37.099Z,2780.00
2018-08-16T11:52:37.058Z,2756.00
2018-08-16T11:53:37.047Z,2624.00
2018-08-16T11:54:36.977Z,2584.00
2018-08-16T11:55:36.931Z,2652.00
2018-08-16T11:56:36.894Z,2800.00
2018-08-16T11:57:36.848Z,2724.00
2018-08-16T11:58:36.861Z,2740.00
2018-08-16T11:59:36.765Z,2608.00
2018-08-16T12:00:36.728Z,2636.00
2018-08-16T12:01:36.686Z,2632.00
2018-08-16T12:02:36.634Z,2692.00
2018-08-16T12:03:36.593Z,2712.00
2018-08-16T12:04:36.575Z,2800.00
2018-08-16T12:05:36.512Z,2804.00
2018-08-16T12:06:36.465Z,2772.00
2018-08-16T12:07:36.427Z,2772.00
2018-08-16T12:08:36.383Z,2704.00
2018-08-16T12:09:36.368Z,2640.00
2018-08-16T12:10:36.299Z,2656.00
2018-08-16T12:11:36.256Z,2708.00
2018-08-16T12:12:36.219Z,2720.00
2018-08-16T12:13:36.186Z,2704.00
2018-08-16T12:14:36.163Z,2672.00
2018-08-16T12:15:36.089Z,2680.00
2018-08-16T12:16:36.049Z,2688.00
2018-08-16T12:17:36.008Z,2552.00
2018-08-16T12:18:35.963Z,2536.00
2018-08-16T12:19:35.948Z,2552.00
2018-08-16T12:20:35.876Z,2624.00
2018-08-16T12:21:35.841Z,2644.00
2018-08-16T12:22:35.796Z,2700.00
2018-08-16T12:23:35.753Z,2756.00
2018-08-16T12:24:35.738Z,2712.00
2018-08-16T12:25:35.671Z,2724.00
2018-08-16T12:26:35.637Z,2672.00
2018-08-16T12:27:35.584Z,2600.00
2018-08-16T12:28:35.544Z,2396.00
2018-08-16T12:29:35.528Z,2376.00